Time;durP1;ratioP1;P1;durP2;ratioP2;P2;SDS_P1;SDS_P2;PMS_P1;PMS_P2;Temp;Humidity;BMP_temperature;BMP_pressure;BME280_temperature;BME280_humidity;BME280_pressure;Samples;Min_cycle;Max_cycle;Signal;HPM_P1;HPM_P2
2023/03/30 00:00:33;;;;;;;7.95;7.15;;;12.60;99.90;;;;;;5086437;28;20262;-77
2023/03/30 00:03:01;;;;;;;8.00;7.30;;;12.50;99.90;;;;;;5076214;28;20297;-76
2023/03/30 00:05:29;;;;;;;8.48;7.68;;;12.50;99.90;;;;;;5075846;28;20745;-75
2023/03/30 00:07:56;;;;;;;7.97;7.22;;;12.50;99.90;;;;;;5075456;28;20568;-76
2023/03/30 00:10:26;;;;;;;8.63;7.63;;;12.50;99.90;;;;;;5076228;28;20245;-78
2023/03/30 00:12:55;;;;;;;7.82;7.13;;;12.50;99.90;;;;;;5075555;28;20224;-77
2023/03/30 00:15:23;;;;;;;7.68;6.97;;;12.50;99.90;;;;;;5076437;28;20220;-78
2023/03/30 00:17:58;;;;;;;8.90;8.00;;;12.50;99.90;;;;;;5071236;28;20306;-76
2023/03/30 00:20:36;;;;;;;8.98;8.07;;;12.40;99.90;;;;;;5085158;28;20288;-76
2023/03/30 00:23:03;;;;;;;8.80;6.70;;;12.40;99.90;;;;;;5079790;28;20232;-76
2023/03/30 00:25:30;;;;;;;7.70;6.90;;;12.40;99.90;;;;;;5079039;28;20231;-76
2023/03/30 00:27:59;;;;;;;8.32;7.50;;;12.40;99.90;;;;;;5078627;28;20285;-75
2023/03/30 00:30:26;;;;;;;7.78;7.07;;;12.40;99.90;;;;;;5077528;28;20227;-77
2023/03/30 00:32:53;;;;;;;7.57;6.85;;;12.40;99.90;;;;;;5076544;28;20232;-75
2023/03/30 00:35:20;;;;;;;7.95;7.13;;;12.30;99.90;;;;;;5075928;28;20347;-76
2023/03/30 00:37:50;;;;;;;8.50;7.13;;;12.30;99.90;;;;;;5074738;28;20224;-76
2023/03/30 00:40:19;;;;;;;7.43;6.78;;;12.30;99.90;;;;;;5075285;28;20311;-76
2023/03/30 00:42:47;;;;;;;7.82;7.20;;;12.30;99.90;;;;;;5074649;28;20227;-78
2023/03/30 00:45:22;;;;;;;7.00;6.40;;;12.30;99.90;;;;;;5074598;28;20230;-77
2023/03/30 00:47:54;;;;;;;8.85;7.25;;;12.30;99.90;;;;;;5074552;28;20584;-77
2023/03/30 00:50:24;;;;;;;6.65;6.03;;;12.30;99.90;;;;;;5074604;28;20247;-76
2023/03/30 00:52:54;;;;;;;6.47;5.88;;;12.30;99.90;;;;;;5074655;28;20697;-77
2023/03/30 00:55:24;;;;;;;6.90;6.30;;;12.30;99.90;;;;;;5075094;28;20224;-78
2023/03/30 00:57:53;;;;;;;7.22;6.53;;;12.20;99.90;;;;;;5074332;28;20236;-77
2023/03/30 01:00:22;;;;;;;7.18;6.47;;;12.20;99.90;;;;;;5075212;28;20231;-76
2023/03/30 01:02:56;;;;;;;7.45;6.10;;;12.20;99.90;;;;;;5074196;28;20244;-76
2023/03/30 01:05:24;;;;;;;8.23;6.88;;;12.20;99.90;;;;;;5074072;28;20212;-75
2023/03/30 01:07:52;;;;;;;7.38;6.78;;;12.20;99.90;;;;;;5074031;28;20234;-77
2023/03/30 01:10:20;;;;;;;7.78;7.03;;;12.20;99.90;;;;;;5074981;28;20626;-76
2023/03/30 01:12:48;;;;;;;8.07;7.32;;;12.20;99.90;;;;;;5074527;28;20219;-77
2023/03/30 01:15:16;;;;;;;8.63;7.15;;;12.20;99.90;;;;;;5074806;28;20219;-77
2023/03/30 01:18:11;;;;;;;7.35;6.63;;;12.10;99.90;;;;;;5074595;28;20246;-76
2023/03/30 01:21:08;;;;;;;7.80;7.15;;;12.10;99.90;;;;;;5064457;28;20220;-76
2023/03/30 01:24:08;;;;;;;7.43;6.68;;;12.10;99.90;;;;;;5072258;28;20289;-77
2023/03/30 01:26:55;;;;;;;8.00;6.60;;;12.10;99.90;;;;;;5073434;28;20224;-76
2023/03/30 01:29:36;;;;;;;8.05;7.13;;;12.10;99.90;;;;;;5074533;28;20235;-76
2023/03/30 01:32:38;;;;;;;9.55;8.57;;;12.00;99.90;;;;;;5075924;28;20239;-77
2023/03/30 01:35:31;;;;;;;8.90;7.65;;;12.00;99.90;;;;;;5074765;28;20224;-76
2023/03/30 01:38:18;;;;;;;7.35;6.65;;;12.00;99.90;;;;;;5073580;28;20231;-77
2023/03/30 01:40:51;;;;;;;8.13;6.95;;;12.00;99.90;;;;;;5074484;28;20277;-77
2023/03/30 01:43:24;;;;;;;7.53;6.93;;;12.00;99.90;;;;;;5073670;28;20349;-77
2023/03/30 01:46:05;;;;;;;7.03;6.43;;;12.00;99.90;;;;;;5074125;28;20243;-76
2023/03/30 01:48:44;;;;;;;8.30;7.57;;;12.00;99.90;;;;;;5073904;28;20319;-76
2023/03/30 01:51:17;;;;;;;7.60;6.80;;;12.00;99.90;;;;;;5074438;28;20615;-76
2023/03/30 01:53:49;;;;;;;7.28;6.68;;;12.00;99.90;;;;;;5073551;28;20626;-77
2023/03/30 01:56:23;;;;;;;7.97;7.28;;;12.00;99.90;;;;;;5073684;28;20224;-77
2023/03/30 01:58:55;;;;;;;7.65;6.95;;;12.00;99.90;;;;;;5072979;28;20223;-77
2023/03/30 02:01:24;;;;;;;7.47;6.72;;;12.00;99.90;;;;;;5073810;28;20232;-77
2023/03/30 02:03:56;;;;;;;9.63;8.65;;;12.00;99.90;;;;;;5073406;28;20231;-77
2023/03/30 02:06:28;;;;;;;9.13;8.00;;;12.00;99.90;;;;;;5073564;28;20216;-77
2023/03/30 02:08:58;;;;;;;8.07;6.40;;;11.90;99.90;;;;;;5072337;28;20282;-77
2023/03/30 02:11:29;;;;;;;8.35;7.55;;;11.90;99.90;;;;;;5073406;28;20230;-77
2023/03/30 02:14:00;;;;;;;6.75;6.10;;;11.90;99.90;;;;;;5073121;28;20256;-76
2023/03/30 02:16:34;;;;;;;7.57;6.88;;;11.90;99.90;;;;;;5073524;28;20281;-76
2023/03/30 02:19:01;;;;;;;7.53;6.25;;;11.90;99.90;;;;;;5072543;28;20244;-77
2023/03/30 02:21:28;;;;;;;8.00;7.30;;;12.00;99.90;;;;;;5073298;28;20250;-77
2023/03/30 02:23:57;;;;;;;8.00;7.30;;;12.00;99.90;;;;;;5072857;28;20586;-76
2023/03/30 02:26:28;;;;;;;8.75;7.85;;;11.90;99.90;;;;;;5073563;28;20246;-76
2023/03/30 02:28:56;;;;;;;7.55;6.82;;;12.00;99.90;;;;;;5072463;28;20774;-77
2023/03/30 02:31:25;;;;;;;8.40;6.55;;;12.00;99.90;;;;;;5073111;28;20220;-78
2023/03/30 02:34:09;;;;;;;7.70;6.95;;;12.00;99.90;;;;;;5072849;28;20803;-76
2023/03/30 02:36:56;;;;;;;6.68;6.07;;;12.00;99.90;;;;;;5073281;28;20220;-78
2023/03/30 02:39:42;;;;;;;7.72;6.88;;;12.10;99.90;;;;;;5052306;28;20220;-78
2023/03/30 02:42:33;;;;;;;6.72;6.10;;;12.10;99.90;;;;;;5084801;28;20327;-77
2023/03/30 02:45:19;;;;;;;7.90;7.20;;;12.20;99.90;;;;;;5073464;28;20670;-75
2023/03/30 02:47:59;;;;;;;6.95;6.35;;;12.20;99.90;;;;;;5061419;28;20216;-76
2023/03/30 02:50:34;;;;;;;6.50;5.90;;;12.30;99.90;;;;;;5073733;28;20666;-76
2023/03/30 02:53:13;;;;;;;7.35;6.75;;;12.20;99.90;;;;;;5071955;28;20242;-76
2023/03/30 02:55:49;;;;;;;8.52;7.72;;;12.30;99.90;;;;;;5073161;28;20232;-77
2023/03/30 02:58:24;;;;;;;7.38;6.40;;;12.30;99.90;;;;;;5070903;28;20234;-76
2023/03/30 03:00:53;;;;;;;7.40;6.15;;;12.30;99.90;;;;;;5072271;28;20342;-77
2023/03/30 03:03:26;;;;;;;7.60;6.90;;;12.30;99.90;;;;;;5072208;28;20633;-76
2023/03/30 03:05:54;;;;;;;7.40;6.70;;;12.30;99.90;;;;;;5072332;28;20310;-78
2023/03/30 03:08:24;;;;;;;8.30;7.60;;;12.30;99.90;;;;;;5071870;28;20219;-76
2023/03/30 03:10:52;;;;;;;6.65;6.00;;;12.30;99.90;;;;;;5072539;28;20227;-76
2023/03/30 03:13:20;;;;;;;7.03;6.32;;;12.30;99.90;;;;;;5072022;28;20220;-76
2023/03/30 03:15:48;;;;;;;7.60;6.57;;;12.30;99.90;;;;;;5072498;28;20224;-76
2023/03/30 03:18:15;;;;;;;8.05;7.30;;;12.30;99.90;;;;;;5071430;28;20253;-77
2023/03/30 03:20:42;;;;;;;6.63;6.10;;;12.30;99.90;;;;;;5072371;28;20223;-76
2023/03/30 03:23:10;;;;;;;8.05;7.35;;;12.30;99.90;;;;;;5071894;28;20220;-77
2023/03/30 03:25:37;;;;;;;7.65;6.45;;;12.30;99.90;;;;;;5072289;28;20236;-78
2023/03/30 03:28:04;;;;;;;7.45;6.25;;;12.30;99.90;;;;;;5071376;28;20228;-77
2023/03/30 03:30:32;;;;;;;6.20;5.60;;;12.30;99.90;;;;;;5072961;28;20223;-76
2023/03/30 03:32:59;;;;;;;6.85;6.15;;;12.30;99.90;;;;;;5072428;28;20537;-77
2023/03/30 03:35:28;;;;;;;7.03;6.25;;;12.30;99.90;;;;;;5072042;28;20668;-76
2023/03/30 03:37:56;;;;;;;7.55;6.85;;;12.30;99.90;;;;;;5072467;28;20228;-77
2023/03/30 03:40:23;;;;;;;7.35;6.60;;;12.30;99.90;;;;;;5072438;28;20608;-76
2023/03/30 03:42:50;;;;;;;7.50;6.80;;;12.30;99.90;;;;;;5072012;28;20266;-76
2023/03/30 03:45:17;;;;;;;7.30;6.65;;;12.30;99.90;;;;;;5061850;28;20227;-76
2023/03/30 03:47:45;;;;;;;7.50;6.80;;;12.30;99.90;;;;;;5072084;28;20289;-76
2023/03/30 03:50:12;;;;;;;7.25;6.55;;;12.20;99.90;;;;;;5071480;28;20293;-76
2023/03/30 03:52:39;;;;;;;7.72;6.00;;;12.20;99.90;;;;;;5072498;28;20224;-77
2023/03/30 03:55:07;;;;;;;8.05;6.25;;;12.20;99.90;;;;;;5071959;28;20298;-77
2023/03/30 03:57:35;;;;;;;6.22;5.63;;;12.20;99.90;;;;;;5072094;28;20282;-76
2023/03/30 04:00:02;;;;;;;8.30;7.50;;;12.20;99.90;;;;;;5071755;28;20220;-76
2023/03/30 04:02:29;;;;;;;7.97;6.35;;;12.20;99.90;;;;;;5071520;28;20246;-77
2023/03/30 04:04:58;;;;;;;7.45;6.75;;;12.20;99.90;;;;;;5071745;28;20220;-76
2023/03/30 04:07:25;;;;;;;8.90;7.85;;;12.10;99.90;;;;;;5071174;28;20285;-76
2023/03/30 04:09:52;;;;;;;8.50;7.70;;;12.10;99.90;;;;;;5071796;28;20224;-77
2023/03/30 04:12:20;;;;;;;8.23;7.32;;;12.10;99.90;;;;;;5071610;28;20315;-77
2023/03/30 04:14:47;;;;;;;7.85;7.15;;;12.10;99.90;;;;;;5071731;28;20220;-77
2023/03/30 04:17:14;;;;;;;7.00;6.30;;;12.00;99.90;;;;;;5071450;28;20290;-77
2023/03/30 04:19:41;;;;;;;8.23;7.22;;;12.10;99.90;;;;;;5071730;28;20275;-76
2023/03/30 04:22:12;;;;;;;7.65;7.05;;;12.10;99.90;;;;;;5071032;28;20220;-76
2023/03/30 04:24:40;;;;;;;7.65;6.95;;;12.10;99.90;;;;;;5071559;28;20228;-76
2023/03/30 04:27:08;;;;;;;7.65;6.88;;;12.10;99.90;;;;;;5071574;28;20220;-77
2023/03/30 04:29:39;;;;;;;7.75;7.05;;;12.00;99.90;;;;;;5071245;28;20216;-76
2023/03/30 04:32:06;;;;;;;8.90;7.75;;;12.10;99.90;;;;;;5073008;28;20216;-76
2023/03/30 04:34:34;;;;;;;7.03;6.32;;;12.10;99.90;;;;;;5077968;28;20212;-78
2023/03/30 04:37:02;;;;;;;8.35;7.35;;;12.10;99.90;;;;;;5080927;28;20450;-77
2023/03/30 04:39:31;;;;;;;7.75;7.05;;;12.10;99.90;;;;;;5071172;28;20228;-75
2023/03/30 04:42:02;;;;;;;12.80;8.77;;;12.10;99.90;;;;;;5076978;28;20251;-75
2023/03/30 04:44:30;;;;;;;8.70;7.68;;;12.10;99.90;;;;;;5079965;28;20224;-77
2023/03/30 04:46:57;;;;;;;8.93;7.65;;;12.10;99.90;;;;;;5077230;28;20224;-77
2023/03/30 04:49:25;;;;;;;11.63;7.30;;;12.20;99.90;;;;;;5075183;28;20262;-78
2023/03/30 04:51:53;;;;;;;9.73;8.73;;;12.10;99.90;;;;;;5074533;28;20248;-77
2023/03/30 04:54:20;;;;;;;8.00;7.20;;;12.10;99.90;;;;;;5074702;28;20242;-77
2023/03/30 04:56:49;;;;;;;11.43;9.32;;;12.10;99.90;;;;;;5076647;28;20220;-77
2023/03/30 04:59:17;;;;;;;12.15;9.88;;;12.10;99.90;;;;;;5075660;28;20224;-77
2023/03/30 05:01:44;;;;;;;10.32;7.72;;;12.10;99.90;;;;;;5074866;28;20307;-75
2023/03/30 05:04:12;;;;;;;8.90;7.75;;;12.00;99.90;;;;;;5074704;28;20544;-75
2023/03/30 05:06:39;;;;;;;10.48;8.02;;;12.10;99.90;;;;;;5074498;28;20247;-75
2023/03/30 05:09:06;;;;;;;10.35;8.32;;;12.10;99.90;;;;;;5074944;28;20228;-76
2023/03/30 05:11:33;;;;;;;7.90;7.20;;;12.10;99.90;;;;;;5073804;28;20227;-75
2023/03/30 05:14:02;;;;;;;8.45;7.32;;;12.10;99.90;;;;;;5075117;28;20349;-78
2023/03/30 05:16:29;;;;;;;7.88;7.15;;;12.10;99.90;;;;;;5074473;28;20220;-77
2023/03/30 05:18:56;;;;;;;9.35;7.72;;;12.20;99.90;;;;;;5075873;28;20289;-77
2023/03/30 05:21:24;;;;;;;7.32;6.60;;;12.10;99.90;;;;;;5074069;28;20226;-76
2023/03/30 05:23:51;;;;;;;7.53;6.65;;;12.10;99.90;;;;;;5067035;28;20662;-74
2023/03/30 05:26:26;;;;;;;10.07;8.15;;;12.20;99.90;;;;;;5079183;28;20229;-76
2023/03/30 05:28:54;;;;;;;8.57;7.00;;;12.10;99.90;;;;;;5072853;28;21206;-77
2023/03/30 05:31:23;;;;;;;8.05;7.25;;;12.10;99.90;;;;;;5075614;28;20304;-77
2023/03/30 05:33:50;;;;;;;8.07;7.13;;;12.20;99.90;;;;;;5074418;28;20665;-76
2023/03/30 05:36:18;;;;;;;8.82;7.88;;;12.10;99.90;;;;;;5073638;28;20211;-78
2023/03/30 05:38:47;;;;;;;8.20;6.78;;;12.10;99.90;;;;;;5073743;28;20228;-76
2023/03/30 05:41:16;;;;;;;8.40;7.22;;;12.10;99.90;;;;;;5074023;28;20219;-77
2023/03/30 05:43:42;;;;;;;7.25;6.55;;;12.10;99.90;;;;;;5073369;28;20219;-77
2023/03/30 05:46:09;;;;;;;7.25;6.55;;;12.10;99.90;;;;;;5073983;28;20273;-77
2023/03/30 05:48:38;;;;;;;8.45;7.10;;;12.20;99.90;;;;;;5072725;28;20255;-76
2023/03/30 05:51:05;;;;;;;9.95;6.68;;;12.20;99.90;;;;;;5074667;28;20244;-76
2023/03/30 05:53:32;;;;;;;7.47;6.63;;;12.20;99.90;;;;;;5073735;28;20224;-76
2023/03/30 05:55:59;;;;;;;11.63;7.50;;;12.30;99.90;;;;;;5073910;28;20223;-76
2023/03/30 05:58:27;;;;;;;7.65;6.60;;;12.20;99.90;;;;;;5073477;28;20236;-76
2023/03/30 06:00:57;;;;;;;11.48;7.35;;;12.30;99.90;;;;;;5073254;28;20303;-77
2023/03/30 06:03:24;;;;;;;7.57;6.35;;;12.30;99.90;;;;;;5073172;28;20261;-76
2023/03/30 06:05:53;;;;;;;6.55;5.95;;;12.30;99.90;;;;;;5072316;28;20224;-76
2023/03/30 06:08:25;;;;;;;6.38;5.82;;;12.30;99.90;;;;;;5073780;28;20224;-76
2023/03/30 06:10:53;;;;;;;8.75;6.85;;;12.30;99.90;;;;;;5073421;28;20238;-76
2023/03/30 06:13:20;;;;;;;6.70;6.00;;;12.30;99.90;;;;;;5074363;28;20536;-76
2023/03/30 06:15:47;;;;;;;10.10;6.30;;;12.30;99.90;;;;;;5073786;28;20713;-77
2023/03/30 06:18:15;;;;;;;6.65;5.43;;;12.30;99.90;;;;;;5074442;28;20231;-77
2023/03/30 06:20:42;;;;;;;9.02;7.25;;;12.40;99.90;;;;;;5073639;28;20531;-77
2023/03/30 06:23:10;;;;;;;10.35;7.40;;;12.40;99.90;;;;;;5074493;28;20231;-77
2023/03/30 06:25:37;;;;;;;5.93;5.40;;;12.40;99.90;;;;;;5074321;28;20230;-77
2023/03/30 06:28:04;;;;;;;9.88;6.15;;;12.40;99.90;;;;;;5074527;28;20223;-76
2023/03/30 06:30:32;;;;;;;7.15;6.38;;;12.40;99.90;;;;;;5079364;28;20703;-78
2023/03/30 06:32:59;;;;;;;8.73;7.45;;;12.40;99.90;;;;;;5073735;28;20228;-76
2023/03/30 06:35:26;;;;;;;9.77;6.50;;;12.40;99.90;;;;;;5073882;28;20570;-76
2023/03/30 06:37:53;;;;;;;6.65;6.05;;;12.40;99.90;;;;;;5073477;28;20242;-76
2023/03/30 06:40:28;;;;;;;6.80;6.20;;;12.50;99.90;;;;;;5074120;28;20224;-76
2023/03/30 06:42:55;;;;;;;9.77;6.55;;;12.50;99.90;;;;;;5074269;28;20235;-76
2023/03/30 06:45:23;;;;;;;8.68;6.50;;;12.50;99.90;;;;;;5075494;28;20235;-76
2023/03/30 06:47:50;;;;;;;7.32;6.63;;;12.50;99.90;;;;;;5073841;28;20278;-77
2023/03/30 06:50:17;;;;;;;5.70;5.20;;;12.50;99.90;;;;;;5075683;28;20227;-76
2023/03/30 06:52:44;;;;;;;7.57;6.82;;;12.60;99.90;;;;;;5074479;28;20223;-77
2023/03/30 06:55:11;;;;;;;10.45;6.28;;;12.60;99.90;;;;;;5072931;28;20224;-76
2023/03/30 06:57:39;;;;;;;8.25;7.28;;;12.60;99.90;;;;;;5073340;28;20674;-76
2023/03/30 07:00:12;;;;;;;7.40;6.30;;;12.60;99.90;;;;;;5072818;28;25351;-77
2023/03/30 07:02:39;;;;;;;6.10;5.35;;;12.60;99.90;;;;;;5063689;28;20308;-76
2023/03/30 07:05:07;;;;;;;6.72;5.60;;;12.70;99.90;;;;;;5073909;28;20220;-77
2023/03/30 07:07:35;;;;;;;6.68;6.05;;;12.70;99.90;;;;;;5074942;28;20289;-76
2023/03/30 07:10:08;;;;;;;7.72;5.60;;;12.80;99.90;;;;;;5072140;28;20261;-77
2023/03/30 07:12:35;;;;;;;5.90;5.40;;;12.90;99.90;;;;;;5078671;28;20316;-74
2023/03/30 07:15:12;;;;;;;6.70;6.03;;;12.80;99.90;;;;;;5072285;28;20227;-76
2023/03/30 07:17:42;;;;;;;7.97;6.43;;;12.90;99.90;;;;;;5072864;28;20692;-76
2023/03/30 07:20:13;;;;;;;7.20;6.00;;;12.90;99.90;;;;;;5062168;28;20246;-76
2023/03/30 07:22:40;;;;;;;6.80;6.05;;;12.90;99.90;;;;;;5073308;28;20252;-76
2023/03/30 07:25:09;;;;;;;9.20;5.38;;;13.00;99.90;;;;;;5072373;28;20285;-77
2023/03/30 07:27:36;;;;;;;7.30;6.43;;;13.10;99.90;;;;;;5072516;28;20244;-76
2023/03/30 07:30:06;;;;;;;6.30;5.70;;;13.20;99.90;;;;;;5072074;28;20657;-77
2023/03/30 07:32:33;;;;;;;7.65;6.35;;;13.20;99.90;;;;;;5072645;28;20224;-76
2023/03/30 07:35:00;;;;;;;9.25;8.25;;;13.30;99.90;;;;;;5071778;28;20227;-77
2023/03/30 07:37:30;;;;;;;6.82;6.00;;;13.40;99.90;;;;;;5072685;28;20246;-77
2023/03/30 07:39:57;;;;;;;7.30;5.95;;;13.40;99.90;;;;;;5072398;28;20224;-76
2023/03/30 07:42:25;;;;;;;6.82;5.85;;;13.50;99.90;;;;;;5072207;28;20692;-78
2023/03/30 07:44:52;;;;;;;7.88;7.15;;;13.60;99.90;;;;;;5072345;28;20224;-76
2023/03/30 07:47:20;;;;;;;7.32;6.00;;;13.70;99.90;;;;;;5072113;28;20257;-77
2023/03/30 07:49:47;;;;;;;8.60;7.03;;;13.70;99.90;;;;;;5071967;28;20297;-74
2023/03/30 07:52:14;;;;;;;6.65;6.05;;;13.80;99.90;;;;;;5071603;28;20223;-77
2023/03/30 07:54:46;;;;;;;7.30;6.60;;;13.90;99.90;;;;;;5065579;28;20231;-76
2023/03/30 07:57:13;;;;;;;7.35;6.25;;;14.00;99.90;;;;;;5081464;28;20520;-77
2023/03/30 07:59:40;;;;;;;8.13;5.53;;;14.10;99.90;;;;;;5072560;28;20219;-76
2023/03/30 08:02:15;;;;;;;6.10;5.60;;;14.20;99.90;;;;;;5071926;28;20539;-77
2023/03/30 08:04:43;;;;;;;7.37;6.23;;;14.30;99.90;;;;;;5071764;28;20777;-76
2023/03/30 08:07:11;;;;;;;6.10;5.50;;;14.40;99.90;;;;;;5072523;28;20473;-76
2023/03/30 08:09:38;;;;;;;7.07;5.30;;;14.50;99.90;;;;;;5075211;28;20498;-76
2023/03/30 08:12:06;;;;;;;6.03;5.47;;;14.50;99.90;;;;;;5082081;28;20465;-76
2023/03/30 08:14:33;;;;;;;6.40;5.80;;;14.60;99.90;;;;;;5095631;28;20834;-76
2023/03/30 08:17:00;;;;;;;7.50;4.80;;;14.60;99.90;;;;;;5096355;28;20793;-75
2023/03/30 08:19:27;;;;;;;5.97;5.47;;;14.70;99.90;;;;;;5096178;28;20469;-77
2023/03/30 08:21:56;;;;;;;5.07;4.37;;;14.70;99.90;;;;;;5096349;28;20934;-75
2023/03/30 08:24:23;;;;;;;6.77;5.60;;;14.80;99.90;;;;;;5096025;28;20484;-76
2023/03/30 08:26:50;;;;;;;7.20;6.50;;;14.90;99.90;;;;;;5096134;28;20530;-76
2023/03/30 08:29:17;;;;;;;6.93;5.50;;;14.90;99.90;;;;;;5095448;28;20465;-76
2023/03/30 08:31:44;;;;;;;6.57;5.70;;;15.00;99.90;;;;;;5075388;28;20458;-76
2023/03/30 08:34:11;;;;;;;10.50;5.80;;;15.10;99.90;;;;;;5075848;28;20466;-77
2023/03/30 08:36:38;;;;;;;5.03;4.50;;;15.10;99.90;;;;;;5075146;28;20959;-76
2023/03/30 08:39:09;;;;;;;16.43;10.70;;;15.20;99.90;;;;;;5076050;28;20458;-77
2023/03/30 08:42:00;;;;;;;7.10;5.80;;;15.20;99.90;;;;;;5074464;28;20561;-77
2023/03/30 08:44:35;;;;;;;6.07;4.70;;;15.30;99.90;;;;;;5075840;28;20470;-77
2023/03/30 08:47:04;;;;;;;4.40;4.00;;;15.30;99.90;;;;;;5075859;28;20462;-77
2023/03/30 08:49:38;;;;;;;6.37;5.73;;;15.40;99.90;;;;;;5074902;28;20539;-76
2023/03/30 08:52:06;;;;;;;8.60;6.33;;;15.40;99.90;;;;;;5081553;28;20523;-76
2023/03/30 08:54:35;;;;;;;8.17;7.20;;;15.50;99.90;;;;;;5083333;28;20478;-77
2023/03/30 08:57:08;;;;;;;7.30;5.40;;;15.60;99.90;;;;;;5075524;28;20466;-76
2023/03/30 08:59:43;;;;;;;5.77;4.80;;;15.70;99.90;;;;;;5074178;28;20578;-77
2023/03/30 09:02:17;;;;;;;5.53;4.70;;;15.80;99.90;;;;;;5075416;28;20470;-77
2023/03/30 09:04:56;;;;;;;4.23;3.50;;;15.80;99.90;;;;;;5075149;28;20581;-76
2023/03/30 09:07:26;;;;;;;5.73;3.93;;;15.90;99.90;;;;;;5075301;28;20477;-76
2023/03/30 09:10:12;;;;;;;3.33;3.03;;;16.00;99.90;;;;;;5073353;28;20900;-74
2023/03/30 09:12:43;;;;;;;6.03;5.23;;;16.10;99.90;;;;;;5074686;28;20804;-77
2023/03/30 09:15:16;;;;;;;8.00;7.17;;;16.20;99.90;;;;;;5075359;28;20458;-77
2023/03/30 09:17:47;;;;;;;7.20;5.90;;;16.30;99.90;;;;;;5074668;28;20850;-77
2023/03/30 09:20:21;;;;;;;9.07;5.07;;;16.40;99.90;;;;;;5074986;28;20466;-76
2023/03/30 09:22:49;;;;;;;6.83;4.03;;;16.50;99.90;;;;;;5074560;28;20564;-77
2023/03/30 09:25:20;;;;;;;3.50;3.20;;;16.60;99.90;;;;;;5075305;28;20592;-78
2023/03/30 09:27:56;;;;;;;6.33;5.40;;;16.70;99.90;;;;;;5074304;28;20462;-75
2023/03/30 09:30:30;;;;;;;5.00;4.37;;;16.80;99.90;;;;;;5075103;28;20527;-77
2023/03/30 09:33:00;;;;;;;4.63;3.70;;;16.90;99.90;;;;;;5074658;28;20545;-78
2023/03/30 09:35:36;;;;;;;5.20;3.80;;;17.00;99.90;;;;;;5074441;28;20470;-77
2023/03/30 09:38:04;;;;;;;7.37;4.90;;;17.10;99.90;;;;;;5074946;28;20904;-77
2023/03/30 09:41:05;;;;;;;8.70;3.17;;;17.20;99.90;;;;;;5075160;28;20807;-76
2023/03/30 09:43:34;;;;;;;5.30;4.10;;;17.20;99.90;;;;;;5055799;28;20476;-76
2023/03/30 09:46:06;;;;;;;5.60;4.00;;;17.40;99.90;;;;;;5074999;28;20463;-75
2023/03/30 09:48:45;;;;;;;5.40;4.10;;;17.40;99.90;;;;;;5073943;28;20481;-77
2023/03/30 09:51:18;;;;;;;7.00;5.20;;;17.40;99.90;;;;;;5075200;28;20469;-77
2023/03/30 09:53:47;;;;;;;6.83;4.63;;;17.40;99.90;;;;;;5073064;28;20459;-78
2023/03/30 09:56:22;;;;;;;5.40;4.60;;;17.50;99.90;;;;;;5074973;27;20470;-78
2023/03/30 09:58:49;;;;;;;5.33;3.30;;;17.50;99.90;;;;;;5065656;28;20462;-78
2023/03/30 10:01:19;;;;;;;7.60;3.97;;;17.50;99.90;;;;;;5074171;28;20467;-76
2023/03/30 10:04:03;;;;;;;3.83;2.87;;;17.60;99.90;;;;;;5073361;28;20454;-77
2023/03/30 10:06:33;;;;;;;7.40;4.20;;;17.60;99.90;;;;;;5072975;28;20531;-76
2023/03/30 10:09:04;;;;;;;5.90;3.50;;;17.60;99.90;;;;;;5072808;28;20482;-76
2023/03/30 10:11:40;;;;;;;5.30;3.80;;;17.60;99.90;;;;;;5073726;28;20470;-76
2023/03/30 10:14:26;;;;;;;2.80;2.47;;;17.60;99.90;;;;;;5072769;28;20974;-75
2023/03/30 10:16:54;;;;;;;4.70;4.30;;;17.60;99.90;;;;;;5073999;28;20563;-77
2023/03/30 10:19:23;;;;;;;7.27;5.60;;;17.70;99.90;;;;;;5073618;28;20490;-75
2023/03/30 10:21:53;;;;;;;9.77;5.33;;;17.60;99.90;;;;;;5073210;28;20458;-75
2023/03/30 10:24:22;;;;;;;5.00;4.27;;;17.60;99.90;;;;;;5073968;28;21041;-76
2023/03/30 10:26:55;;;;;;;7.63;5.77;;;17.60;99.90;;;;;;5073428;28;20450;-75
2023/03/30 10:29:24;;;;;;;7.80;4.40;;;17.60;99.90;;;;;;5072636;28;20474;-76
2023/03/30 10:31:57;;;;;;;5.10;3.90;;;17.60;99.90;;;;;;5072227;28;20512;-75
2023/03/30 10:34:36;;;;;;;5.97;3.17;;;17.60;99.90;;;;;;5072949;28;20808;-77
2023/03/30 10:37:10;;;;;;;6.43;3.60;;;17.60;99.90;;;;;;5072644;28;20500;-76
2023/03/30 10:39:40;;;;;;;9.23;3.43;;;17.60;99.90;;;;;;5072112;28;20978;-74
2023/03/30 10:42:14;;;;;;;4.97;4.27;;;17.50;99.90;;;;;;5073018;28;20531;-76
2023/03/30 10:44:46;;;;;;;7.80;5.10;;;17.60;99.90;;;;;;5073642;28;20461;-77
2023/03/30 10:47:37;;;;;;;6.77;6.07;;;17.60;99.90;;;;;;5072759;28;20938;-77
2023/03/30 10:50:14;;;;;;;8.60;3.80;;;17.70;99.90;;;;;;5072754;28;20535;-76
2023/03/30 10:52:51;;;;;;;6.90;3.97;;;17.70;99.90;;;;;;5073085;28;20470;-75
2023/03/30 10:55:23;;;;;;;5.80;3.70;;;17.80;99.90;;;;;;5072970;28;20485;-75
2023/03/30 10:58:09;;;;;;;9.47;3.70;;;17.80;99.90;;;;;;5073686;28;20466;-75
2023/03/30 11:00:53;;;;;;;4.87;2.93;;;17.90;99.90;;;;;;5073459;28;20489;-77
2023/03/30 11:03:25;;;;;;;7.10;4.00;;;17.90;99.90;;;;;;5072917;28;20959;-75
2023/03/30 11:05:57;;;;;;;5.73;3.80;;;17.90;99.90;;;;;;5073062;28;20528;-76
2023/03/30 11:08:28;;;;;;;9.33;3.87;;;17.90;99.90;;;;;;5073152;28;20532;-75
2023/03/30 11:13:43;;;;;;;5.13;2.90;;;18.00;99.90;;;;;;5062232;28;20473;-76
2023/03/30 11:16:51;;;;;;;;;;;;;;;;;;;;;
2023/03/30 11:22:14;;;;;;;7.27;5.10;;;18.00;99.90;;;;;;5073057;28;20466;-76
2023/03/30 11:25:07;;;;;;;;;;;;;;;;;;;;;
2023/03/30 11:27:39;;;;;;;8.13;5.00;;;18.10;99.90;;;;;;5068537;28;20473;-77
2023/03/30 11:30:20;;;;;;;3.53;3.13;;;18.20;99.90;;;;;;5072842;28;20466;-77
2023/03/30 11:32:53;;;;;;;6.80;3.63;;;18.20;99.90;;;;;;5072339;28;20462;-77
2023/03/30 11:35:29;;;;;;;4.07;3.50;;;18.20;99.90;;;;;;5072789;28;20478;-77
2023/03/30 11:38:02;;;;;;;8.27;5.40;;;18.20;99.90;;;;;;5072374;28;20461;-77
2023/03/30 11:40:37;;;;;;;6.50;3.47;;;18.20;99.90;;;;;;5072706;28;20458;-77
2023/03/30 11:43:04;;;;;;;5.17;2.47;;;18.20;99.90;;;;;;5076155;28;20957;-77
2023/03/30 11:45:57;;;;;;;4.90;3.70;;;18.20;99.90;;;;;;5076558;28;20971;-77
2023/03/30 11:49:03;;;;;;;9.87;4.90;;;18.20;99.90;;;;;;5076090;28;20477;-78
2023/03/30 11:51:49;;;;;;;5.33;3.80;;;18.20;99.90;;;;;;5076442;28;21003;-78
2023/03/30 11:54:35;;;;;;;5.97;4.10;;;18.20;99.90;;;;;;5077544;28;20462;-77
2023/03/30 11:57:09;;;;;;;12.13;5.67;;;18.20;99.90;;;;;;5074055;28;20458;-77
2023/03/30 11:59:46;;;;;;;6.27;4.60;;;18.30;99.90;;;;;;5076399;28;20526;-76
2023/03/30 12:02:26;;;;;;;8.73;5.90;;;18.30;99.90;;;;;;5076024;28;20585;-76
2023/03/30 12:04:57;;;;;;;8.10;4.10;;;18.40;99.90;;;;;;5076093;28;20994;-75
2023/03/30 12:07:33;;;;;;;6.80;3.97;;;18.40;99.90;;;;;;5075007;28;20461;-75
2023/03/30 12:10:05;;;;;;;8.63;7.23;;;18.40;99.90;;;;;;5076036;28;20552;-75
2023/03/30 12:15:33;;;;;;;7.87;4.70;;;18.40;99.90;;;;;;5074838;28;20464;-76
2023/03/30 12:18:08;;;;;;;6.23;4.23;;;18.50;99.90;;;;;;5075711;28;20964;-76
2023/03/30 12:20:44;;;;;;;6.80;5.60;;;18.50;99.90;;;;;;5075446;28;20488;-76
2023/03/30 12:23:22;;;;;;;7.70;6.30;;;18.60;99.90;;;;;;5075630;28;20539;-75
2023/03/30 12:26:21;;;;;;;7.80;4.30;;;18.60;99.90;;;;;;5076385;28;20968;-79
2023/03/30 12:28:55;;;;;;;6.37;5.20;;;18.70;99.90;;;;;;5073437;28;20462;-76
2023/03/30 12:31:23;;;;;;;2.80;2.60;;;18.70;99.90;;;;;;5075892;28;20469;-77
2023/03/30 12:33:52;;;;;;;4.53;2.93;;;18.70;99.90;;;;;;5075192;28;21025;-77
2023/03/30 12:36:33;;;;;;;6.33;4.53;;;18.70;99.90;;;;;;5076193;28;20546;-77
2023/03/30 12:39:02;;;;;;;4.73;4.00;;;18.70;99.90;;;;;;5075353;28;20496;-75
2023/03/30 12:41:41;;;;;;;9.27;4.50;;;18.70;99.90;;;;;;5075297;28;20470;-75
2023/03/30 12:44:28;;;;;;;4.90;4.40;;;18.80;99.90;;;;;;5074733;28;20977;-76
2023/03/30 12:47:04;;;;;;;9.63;5.77;;;18.80;99.90;;;;;;5074800;28;20517;-77
2023/03/30 12:49:46;;;;;;;5.90;4.83;;;18.80;99.90;;;;;;5074722;28;20476;-75
2023/03/30 12:52:17;;;;;;;8.50;3.80;;;18.80;99.90;;;;;;5074809;28;20554;-76
2023/03/30 12:55:10;;;;;;;5.33;3.30;;;18.90;99.90;;;;;;5074154;28;20547;-76
2023/03/30 12:57:51;;;;;;;4.03;2.90;;;18.90;99.90;;;;;;5072728;28;20458;-76
2023/03/30 13:00:39;;;;;;;8.40;3.07;;;19.00;99.90;;;;;;5078377;28;21087;-75
2023/03/30 13:03:39;;;;;;;4.47;3.67;;;19.00;99.90;;;;;;5074601;28;20454;-75
2023/03/30 13:06:14;;;;;;;10.73;6.80;;;19.00;99.90;;;;;;5073387;28;20883;-77
2023/03/30 13:08:42;;;;;;;7.90;5.10;;;19.10;99.90;;;;;;5073033;28;20470;-74
2023/03/30 13:11:16;;;;;;;7.93;3.53;;;19.10;99.90;;;;;;5074232;28;20960;-75
2023/03/30 13:13:56;;;;;;;5.50;2.90;;;19.10;99.90;;;;;;5074684;28;20549;-75
2023/03/30 13:16:48;;;;;;;7.93;4.40;;;19.10;99.90;;;;;;5075072;28;20549;-76
2023/03/30 13:19:47;;;;;;;4.40;3.50;;;19.10;99.90;;;;;;5074369;28;20462;-76
2023/03/30 13:22:29;;;;;;;6.83;4.13;;;19.20;99.90;;;;;;5079916;28;20508;-76